sensor_id;sensor_type;location;lat;lon;timestamp;pressure;altitude;pressure_sealevel;temperature;humidity
4415;BME280;2220;42.670;23.398;2023-01-25T12:01:11;93684.97;;;3.43;100.00
4415;BME280;2220;42.670;23.398;2023-01-25T12:29:28;94034.38;;;2.61;100.00
4415;BME280;2220;42.670;23.398;2023-01-25T12:34:39;94049.13;;;2.89;100.00
4415;BME280;2220;42.670;23.398;2023-01-25T12:37:14;94065.25;;;2.84;100.00
4415;BME280;2220;42.670;23.398;2023-01-25T12:39:53;94089.75;;;2.87;100.00
4415;BME280;2220;42.670;23.398;2023-01-25T12:42:39;94118.72;;;2.82;100.00
4415;BME280;2220;42.670;23.398;2023-01-25T12:45:26;94124.97;;;3.09;100.00
4415;BME280;2220;42.670;23.398;2023-01-25T12:48:17;94153.94;;;2.93;100.00
4415;BME280;2220;42.670;23.398;2023-01-25T12:50:56;94157.84;;;2.96;100.00
4415;BME280;2220;42.670;23.398;2023-01-25T12:53:44;94169.72;;;3.08;100.00
4415;BME280;2220;42.670;23.398;2023-01-25T13:01:51;94207.91;;;3.35;100.00
4415;BME280;2220;42.670;23.398;2023-01-25T13:07:45;94221.09;;;3.15;100.00
4415;BME280;2220;42.670;23.398;2023-01-25T13:10:20;94261.22;;;3.04;100.00
4415;BME280;2220;42.670;23.398;2023-01-25T13:12:52;94268.28;;;3.09;100.00
4415;BME280;2220;42.670;23.398;2023-01-25T13:15:41;94271.88;;;3.20;100.00
4415;BME280;2220;42.670;23.398;2023-01-25T13:18:36;94271.50;;;3.04;100.00
4415;BME280;2220;42.670;23.398;2023-01-25T13:21:06;94302.34;;;2.81;100.00
4415;BME280;2220;42.670;23.398;2023-01-25T13:23:40;94318.13;;;2.66;100.00
4415;BME280;2220;42.670;23.398;2023-01-25T13:28:47;94328.91;;;2.57;100.00
4415;BME280;2220;42.670;23.398;2023-01-25T13:34:02;94335.72;;;2.51;100.00
4415;BME280;2220;42.670;23.398;2023-01-25T13:42:03;94359.50;;;2.65;100.00
4415;BME280;2220;42.670;23.398;2023-01-25T13:44:32;94359.84;;;2.68;100.00
4415;BME280;2220;42.670;23.398;2023-01-25T13:47:01;94371.63;;;2.58;100.00
4415;BME280;2220;42.670;23.398;2023-01-25T13:49:40;94384.19;;;2.47;100.00
4415;BME280;2220;42.670;23.398;2023-01-25T13:52:05;94387.69;;;2.53;100.00
4415;BME280;2220;42.670;23.398;2023-01-25T13:54:32;94384.84;;;2.43;100.00
4415;BME280;2220;42.670;23.398;2023-01-25T13:57:14;94398.81;;;2.47;100.00
4415;BME280;2220;42.670;23.398;2023-01-25T13:59:43;94395.13;;;2.43;100.00
4415;BME280;2220;42.670;23.398;2023-01-25T14:02:17;94395.41;;;2.35;100.00
4415;BME280;2220;42.670;23.398;2023-01-25T14:04:45;94417.28;;;2.19;100.00
4415;BME280;2220;42.670;23.398;2023-01-25T14:07:15;94424.84;;;2.14;100.00
4415;BME280;2220;42.670;23.398;2023-01-25T14:09:43;94434.50;;;2.18;100.00
4415;BME280;2220;42.670;23.398;2023-01-25T14:12:10;94426.41;;;2.15;100.00
4415;BME280;2220;42.670;23.398;2023-01-25T14:14:37;94435.91;;;2.14;100.00
4415;BME280;2220;42.670;23.398;2023-01-25T14:17:04;94435.75;;;2.09;100.00
4415;BME280;2220;42.670;23.398;2023-01-25T14:19:30;94431.50;;;1.96;100.00
4415;BME280;2220;42.670;23.398;2023-01-25T14:22:27;94441.78;;;1.96;100.00
4415;BME280;2220;42.670;23.398;2023-01-25T14:25:13;94445.69;;;1.99;100.00
4415;BME280;2220;42.670;23.398;2023-01-25T14:27:53;94442.59;;;1.90;100.00
4415;BME280;2220;42.670;23.398;2023-01-25T14:30:23;94448.56;;;1.84;100.00
4415;BME280;2220;42.670;23.398;2023-01-25T14:32:51;94446.22;;;1.83;100.00
4415;BME280;2220;42.670;23.398;2023-01-25T14:37:51;94447.94;;;1.57;100.00
4415;BME280;2220;42.670;23.398;2023-01-25T14:40:19;94453.13;;;1.51;100.00
4415;BME280;2220;42.670;23.398;2023-01-25T14:42:47;94469.97;;;1.40;100.00
4415;BME280;2220;42.670;23.398;2023-01-25T14:45:13;94470.97;;;1.39;100.00
4415;BME280;2220;42.670;23.398;2023-01-25T14:47:39;94469.53;;;1.43;100.00
4415;BME280;2220;42.670;23.398;2023-01-25T14:50:30;94480.66;;;1.37;100.00
4415;BME280;2220;42.670;23.398;2023-01-25T14:52:57;94489.94;;;1.31;100.00
4415;BME280;2220;42.670;23.398;2023-01-25T14:55:25;94464.13;;;1.20;100.00
4415;BME280;2220;42.670;23.398;2023-01-25T14:57:51;94491.94;;;1.29;100.00
4415;BME280;2220;42.670;23.398;2023-01-25T15:00:21;94497.44;;;1.33;100.00
4415;BME280;2220;42.670;23.398;2023-01-25T15:02:52;94512.03;;;1.32;100.00
4415;BME280;2220;42.670;23.398;2023-01-25T15:05:21;94527.47;;;1.19;100.00
4415;BME280;2220;42.670;23.398;2023-01-25T15:07:53;94525.31;;;1.16;100.00
4415;BME280;2220;42.670;23.398;2023-01-25T15:10:25;94531.59;;;1.20;100.00
4415;BME280;2220;42.670;23.398;2023-01-25T15:15:35;94545.47;;;1.13;100.00
4415;BME280;2220;42.670;23.398;2023-01-25T15:18:01;94553.56;;;1.03;100.00
4415;BME280;2220;42.670;23.398;2023-01-25T15:26:27;94578.84;;;0.99;100.00
4415;BME280;2220;42.670;23.398;2023-01-25T15:28:55;94584.53;;;1.01;100.00
4415;BME280;2220;42.670;23.398;2023-01-25T15:31:32;94579.81;;;0.98;100.00
4415;BME280;2220;42.670;23.398;2023-01-25T15:33:59;94588.72;;;0.89;100.00
4415;BME280;2220;42.670;23.398;2023-01-25T15:36:26;94596.59;;;0.88;100.00
4415;BME280;2220;42.670;23.398;2023-01-25T15:38:51;94589.09;;;0.86;100.00
4415;BME280;2220;42.670;23.398;2023-01-25T15:41:17;94599.16;;;0.88;100.00
4415;BME280;2220;42.670;23.398;2023-01-25T15:43:43;94600.34;;;0.92;100.00
4415;BME280;2220;42.670;23.398;2023-01-25T15:46:28;94608.81;;;0.86;100.00
4415;BME280;2220;42.670;23.398;2023-01-25T15:48:56;94613.16;;;0.92;100.00
4415;BME280;2220;42.670;23.398;2023-01-25T15:51:21;94622.84;;;0.90;100.00
4415;BME280;2220;42.670;23.398;2023-01-25T15:53:47;94609.59;;;0.86;100.00
4415;BME280;2220;42.670;23.398;2023-01-25T15:56:20;94611.78;;;0.82;100.00
4415;BME280;2220;42.670;23.398;2023-01-25T15:58:50;94615.16;;;0.83;100.00
4415;BME280;2220;42.670;23.398;2023-01-25T16:01:17;94613.16;;;0.78;100.00
4415;BME280;2220;42.670;23.398;2023-01-25T16:03:43;94618.28;;;0.72;100.00
4415;BME280;2220;42.670;23.398;2023-01-25T16:06:38;94622.03;;;0.69;100.00
4415;BME280;2220;42.670;23.398;2023-01-25T16:11:41;94626.78;;;0.66;100.00
4415;BME280;2220;42.670;23.398;2023-01-25T16:14:07;94635.25;;;0.53;100.00
4415;BME280;2220;42.670;23.398;2023-01-25T16:16:35;94639.97;;;0.63;100.00
4415;BME280;2220;42.670;23.398;2023-01-25T16:19:03;94638.59;;;0.60;100.00
4415;BME280;2220;42.670;23.398;2023-01-25T16:21:28;94640.38;;;0.60;100.00
4415;BME280;2220;42.670;23.398;2023-01-25T16:23:54;94637.22;;;0.64;100.00
4415;BME280;2220;42.670;23.398;2023-01-25T16:26:22;94648.44;;;0.63;100.00
4415;BME280;2220;42.670;23.398;2023-01-25T16:28:48;94631.31;;;0.83;100.00
4415;BME280;2220;42.670;23.398;2023-01-25T16:31:14;94634.06;;;0.95;100.00
4415;BME280;2220;42.670;23.398;2023-01-25T16:33:40;94625.81;;;0.73;100.00
4415;BME280;2220;42.670;23.398;2023-01-25T16:36:18;94633.66;;;0.72;100.00
4415;BME280;2220;42.670;23.398;2023-01-25T16:38:44;94631.69;;;0.61;100.00
4415;BME280;2220;42.670;23.398;2023-01-25T16:41:10;94643.94;;;0.59;100.00
4415;BME280;2220;42.670;23.398;2023-01-25T16:43:44;94644.31;;;0.62;100.00
4415;BME280;2220;42.670;23.398;2023-01-25T16:46:19;94642.75;;;0.68;100.00
4415;BME280;2220;42.670;23.398;2023-01-25T16:48:46;94643.75;;;0.73;100.00
4415;BME280;2220;42.670;23.398;2023-01-25T16:51:23;94623.41;;;0.85;100.00
4415;BME280;2220;42.670;23.398;2023-01-25T16:53:51;94632.09;;;0.77;100.00
4415;BME280;2220;42.670;23.398;2023-01-25T16:56:28;94635.06;;;0.61;100.00
4415;BME280;2220;42.670;23.398;2023-01-25T16:58:56;94653.94;;;0.47;100.00
4415;BME280;2220;42.670;23.398;2023-01-25T17:01:23;94632.47;;;0.35;100.00
4415;BME280;2220;42.670;23.398;2023-01-25T17:03:49;94654.53;;;0.36;100.00
4415;BME280;2220;42.670;23.398;2023-01-25T17:06:16;94664.75;;;0.29;100.00
4415;BME280;2220;42.670;23.398;2023-01-25T17:08:43;94667.31;;;0.29;100.00
4415;BME280;2220;42.670;23.398;2023-01-25T17:11:09;94667.16;;;0.44;100.00
4415;BME280;2220;42.670;23.398;2023-01-25T17:13:34;94673.84;;;0.38;100.00
4415;BME280;2220;42.670;23.398;2023-01-25T17:16:00;94672.47;;;0.36;100.00
4415;BME280;2220;42.670;23.398;2023-01-25T17:18:26;94684.63;;;0.14;100.00
4415;BME280;2220;42.670;23.398;2023-01-25T17:21:11;94684.44;;;0.22;100.00
4415;BME280;2220;42.670;23.398;2023-01-25T17:23:39;94701.22;;;0.24;100.00
4415;BME280;2220;42.670;23.398;2023-01-25T17:26:07;94705.13;;;0.20;100.00
4415;BME280;2220;42.670;23.398;2023-01-25T17:28:33;94706.50;;;0.23;100.00
4415;BME280;2220;42.670;23.398;2023-01-25T17:30:58;94718.56;;;0.29;100.00
4415;BME280;2220;42.670;23.398;2023-01-25T17:33:24;94709.53;;;0.33;100.00
4415;BME280;2220;42.670;23.398;2023-01-25T17:35:50;94707.53;;;0.28;100.00
4415;BME280;2220;42.670;23.398;2023-01-25T17:38:16;94707.53;;;0.28;100.00
4415;BME280;2220;42.670;23.398;2023-01-25T17:40:43;94706.34;;;0.24;100.00
4415;BME280;2220;42.670;23.398;2023-01-25T17:43:08;94708.06;;;0.11;100.00
4415;BME280;2220;42.670;23.398;2023-01-25T17:45:34;94713.97;;;0.11;100.00
4415;BME280;2220;42.670;23.398;2023-01-25T17:48:06;94718.50;;;0.09;100.00
4415;BME280;2220;42.670;23.398;2023-01-25T17:50:35;94730.13;;;0.12;100.00
4415;BME280;2220;42.670;23.398;2023-01-25T17:53:02;94714.94;;;0.04;100.00
4415;BME280;2220;42.670;23.398;2023-01-25T17:55:27;94723.66;;;0.22;100.00
4415;BME280;2220;42.670;23.398;2023-01-25T17:57:53;94716.41;;;0.39;100.00
4415;BME280;2220;42.670;23.398;2023-01-25T18:00:19;94717.41;;;0.38;100.00
4415;BME280;2220;42.670;23.398;2023-01-25T18:02:44;94730.16;;;0.18;100.00
4415;BME280;2220;42.670;23.398;2023-01-25T18:05:11;94726.03;;;0.24;100.00
4415;BME280;2220;42.670;23.398;2023-01-25T18:07:36;94728.78;;;0.22;100.00
4415;BME280;2220;42.670;23.398;2023-01-25T18:10:02;94723.03;;;0.14;100.00
4415;BME280;2220;42.670;23.398;2023-01-25T18:12:28;94731.47;;;0.08;100.00
4415;BME280;2220;42.670;23.398;2023-01-25T18:14:53;94724.81;;;0.13;100.00
4415;BME280;2220;42.670;23.398;2023-01-25T18:17:19;94726.97;;;0.10;100.00
4415;BME280;2220;42.670;23.398;2023-01-25T18:19:44;94730.78;;;0.27;100.00
4415;BME280;2220;42.670;23.398;2023-01-25T18:22:10;94736.06;;;0.19;100.00
4415;BME280;2220;42.670;23.398;2023-01-25T18:24:36;94739.59;;;0.11;100.00
4415;BME280;2220;42.670;23.398;2023-01-25T18:27:22;94739.22;;;0.21;100.00
4415;BME280;2220;42.670;23.398;2023-01-25T18:32:19;94740.34;;;0.05;100.00
4415;BME280;2220;42.670;23.398;2023-01-25T18:34:45;94743.16;;;0.17;100.00
4415;BME280;2220;42.670;23.398;2023-01-25T18:37:12;94737.03;;;0.11;100.00
4415;BME280;2220;42.670;23.398;2023-01-25T18:39:52;94748.75;;;0.34;100.00
4415;BME280;2220;42.670;23.398;2023-01-25T18:42:20;94731.63;;;0.47;100.00
4415;BME280;2220;42.670;23.398;2023-01-25T18:44:46;94736.53;;;0.36;100.00
4415;BME280;2220;42.670;23.398;2023-01-25T18:47:15;94732.59;;;0.33;100.00
4415;BME280;2220;42.670;23.398;2023-01-25T18:49:46;94753.63;;;0.28;100.00
4415;BME280;2220;42.670;23.398;2023-01-25T18:52:13;94746.16;;;0.27;100.00
4415;BME280;2220;42.670;23.398;2023-01-25T18:54:41;94744.81;;;0.38;100.00
4415;BME280;2220;42.670;23.398;2023-01-25T18:57:06;94737.31;;;0.36;100.00
4415;BME280;2220;42.670;23.398;2023-01-25T18:59:32;94748.28;;;0.17;100.00
4415;BME280;2220;42.670;23.398;2023-01-25T19:01:57;94750.84;;;0.23;100.00
4415;BME280;2220;42.670;23.398;2023-01-25T19:04:23;94746.19;;;0.34;100.00
4415;BME280;2220;42.670;23.398;2023-01-25T19:06:48;94736.09;;;0.32;100.00
4415;BME280;2220;42.670;23.398;2023-01-25T19:09:17;94733.34;;;0.27;100.00
4415;BME280;2220;42.670;23.398;2023-01-25T19:11:43;94722.66;;;0.23;100.00
4415;BME280;2220;42.670;23.398;2023-01-25T19:14:08;94725.84;;;0.32;100.00
4415;BME280;2220;42.670;23.398;2023-01-25T19:16:34;94728.63;;;0.31;100.00
4415;BME280;2220;42.670;23.398;2023-01-25T19:18:59;94714.81;;;0.32;100.00
4415;BME280;2220;42.670;23.398;2023-01-25T19:21:26;94720.53;;;0.27;100.00
4415;BME280;2220;42.670;23.398;2023-01-25T19:23:53;94725.47;;;0.28;100.00
4415;BME280;2220;42.670;23.398;2023-01-25T19:26:20;94714.03;;;0.31;100.00
4415;BME280;2220;42.670;23.398;2023-01-25T19:28:47;94715.78;;;0.24;100.00
4415;BME280;2220;42.670;23.398;2023-01-25T19:31:17;94716.63;;;0.38;100.00
4415;BME280;2220;42.670;23.398;2023-01-25T19:33:45;94705.78;;;0.36;100.00
4415;BME280;2220;42.670;23.398;2023-01-25T19:36:15;94695.72;;;0.34;100.00
4415;BME280;2220;42.670;23.398;2023-01-25T19:38:43;94685.28;;;0.36;100.00
4415;BME280;2220;42.670;23.398;2023-01-25T19:41:13;94692.19;;;0.35;100.00
4415;BME280;2220;42.670;23.398;2023-01-25T19:43:40;94692.91;;;0.22;100.00
4415;BME280;2220;42.670;23.398;2023-01-25T19:46:19;94693.16;;;0.27;100.00
4415;BME280;2220;42.670;23.398;2023-01-25T19:48:46;94699.84;;;0.28;100.00
4415;BME280;2220;42.670;23.398;2023-01-25T19:51:16;94705.53;;;0.17;100.00
4415;BME280;2220;42.670;23.398;2023-01-25T19:53:46;94704.94;;;0.22;100.00
4415;BME280;2220;42.670;23.398;2023-01-25T19:56:16;94694.75;;;0.35;100.00
4415;BME280;2220;42.670;23.398;2023-01-25T19:58:43;94685.66;;;0.26;100.00
4415;BME280;2220;42.670;23.398;2023-01-25T20:01:12;94692.91;;;0.22;100.00
4415;BME280;2220;42.670;23.398;2023-01-25T20:03:38;94682.47;;;0.24;100.00
4415;BME280;2220;42.670;23.398;2023-01-25T20:06:04;94691.16;;;0.16;100.00
4415;BME280;2220;42.670;23.398;2023-01-25T20:08:33;94697.84;;;0.17;100.00
4415;BME280;2220;42.670;23.398;2023-01-25T20:11:00;94698.59;;;0.11;100.00
4415;BME280;2220;42.670;23.398;2023-01-25T20:13:26;94704.75;;;0.17;100.00
4415;BME280;2220;42.670;23.398;2023-01-25T20:15:52;94707.06;;;0.12;100.00
4415;BME280;2220;42.670;23.398;2023-01-25T20:18:18;94704.31;;;0.13;100.00
4415;BME280;2220;42.670;23.398;2023-01-25T20:20:44;94701.16;;;0.11;100.00
4415;BME280;2220;42.670;23.398;2023-01-25T20:23:09;94701.72;;;0.07;100.00
4415;BME280;2220;42.670;23.398;2023-01-25T20:25:34;94699.44;;;0.18;100.00
4415;BME280;2220;42.670;23.398;2023-01-25T20:28:00;94703.16;;;0.22;100.00
4415;BME280;2220;42.670;23.398;2023-01-25T20:30:25;94700.03;;;0.27;100.00
4415;BME280;2220;42.670;23.398;2023-01-25T20:32:51;94703.53;;;0.13;100.00
4415;BME280;2220;42.670;23.398;2023-01-25T20:35:16;94708.25;;;0.09;100.00
4415;BME280;2220;42.670;23.398;2023-01-25T20:37:42;94712.19;;;0.12;100.00
4415;BME280;2220;42.670;23.398;2023-01-25T20:40:08;94707.13;;;0.25;100.00
4415;BME280;2220;42.670;23.398;2023-01-25T20:42:33;94704.97;;;0.28;100.00
4415;BME280;2220;42.670;23.398;2023-01-25T20:44:59;94701.84;;;0.40;100.00
4415;BME280;2220;42.670;23.398;2023-01-25T20:47:24;94702.25;;;0.43;100.00
4415;BME280;2220;42.670;23.398;2023-01-25T20:49:50;94694.31;;;0.25;100.00
4415;BME280;2220;42.670;23.398;2023-01-25T20:52:15;94697.63;;;0.12;100.00
4415;BME280;2220;42.670;23.398;2023-01-25T20:54:41;94687.34;;;0.06;100.00
4415;BME280;2220;42.670;23.398;2023-01-25T20:57:07;94691.47;;;0.07;100.00
4415;BME280;2220;42.670;23.398;2023-01-25T20:59:32;94696.53;;;-0.13;100.00
4415;BME280;2220;42.670;23.398;2023-01-25T21:01:57;94692.28;;;0.01;100.00
4415;BME280;2220;42.670;23.398;2023-01-25T21:04:23;94692.28;;;0.01;100.00
4415;BME280;2220;42.670;23.398;2023-01-25T21:06:48;94695.97;;;-0.02;100.00
4415;BME280;2220;42.670;23.398;2023-01-25T21:09:14;94700.53;;;0.03;100.00
4415;BME280;2220;42.670;23.398;2023-01-25T21:11:40;94685.53;;;-0.07;100.00
4415;BME280;2220;42.670;23.398;2023-01-25T21:14:05;94683.94;;;-0.08;100.00
4415;BME280;2220;42.670;23.398;2023-01-25T21:16:31;94690.28;;;-0.04;100.00
4415;BME280;2220;42.670;23.398;2023-01-25T21:18:58;94685.34;;;-0.06;100.00
4415;BME280;2220;42.670;23.398;2023-01-25T21:21:25;94702.25;;;-0.11;100.00
4415;BME280;2220;42.670;23.398;2023-01-25T21:23:52;94686.34;;;-0.07;100.00
4415;BME280;2220;42.670;23.398;2023-01-25T21:26:23;94683.81;;;0.00;100.00
4415;BME280;2220;42.670;23.398;2023-01-25T21:28:50;94680.41;;;-0.01;100.00
4415;BME280;2220;42.670;23.398;2023-01-25T21:31:21;94668.41;;;-0.07;100.00
4415;BME280;2220;42.670;23.398;2023-01-25T21:33:47;94665.06;;;-0.07;100.00
4415;BME280;2220;42.670;23.398;2023-01-25T21:36:14;94677.44;;;-0.11;100.00
4415;BME280;2220;42.670;23.398;2023-01-25T21:38:42;94687.66;;;-0.17;100.00
4415;BME280;2220;42.670;23.398;2023-01-25T21:41:21;94684.88;;;-0.22;100.00
4415;BME280;2220;42.670;23.398;2023-01-25T21:43:50;94677.75;;;-0.27;100.00
4415;BME280;2220;42.670;23.398;2023-01-25T21:46:34;94686.03;;;-0.25;100.00
4415;BME280;2220;42.670;23.398;2023-01-25T21:49:03;94686.81;;;-0.31;100.00
4415;BME280;2220;42.670;23.398;2023-01-25T21:51:49;94679.53;;;-0.28;100.00
4415;BME280;2220;42.670;23.398;2023-01-25T21:54:26;94684.63;;;-0.34;100.00
4415;BME280;2220;42.670;23.398;2023-01-25T21:56:54;94677.38;;;-0.31;100.00
4415;BME280;2220;42.670;23.398;2023-01-25T21:59:20;94687.75;;;-0.39;100.00
4415;BME280;2220;42.670;23.398;2023-01-25T22:01:46;94678.31;;;-0.38;100.00
4415;BME280;2220;42.670;23.398;2023-01-25T22:04:13;94674.97;;;-0.39;100.00
4415;BME280;2220;42.670;23.398;2023-01-25T22:06:40;94672.78;;;-0.35;100.00
4415;BME280;2220;42.670;23.398;2023-01-25T22:09:06;94663.34;;;-0.35;100.00
4415;BME280;2220;42.670;23.398;2023-01-25T22:11:32;94646.09;;;-0.19;100.00
4415;BME280;2220;42.670;23.398;2023-01-25T22:13:57;94645.66;;;-0.30;100.00
4415;BME280;2220;42.670;23.398;2023-01-25T22:16:23;94655.75;;;-0.21;100.00
4415;BME280;2220;42.670;23.398;2023-01-25T22:18:49;94641.41;;;-0.09;100.00
4415;BME280;2220;42.670;23.398;2023-01-25T22:21:16;94642.56;;;-0.12;100.00
4415;BME280;2220;42.670;23.398;2023-01-25T22:23:42;94627.44;;;-0.07;100.00
4415;BME280;2220;42.670;23.398;2023-01-25T22:26:13;94625.47;;;-0.05;100.00
4415;BME280;2220;42.670;23.398;2023-01-25T22:28:47;94615.22;;;-0.05;100.00
4415;BME280;2220;42.670;23.398;2023-01-25T22:31:15;94620.94;;;-0.03;100.00
4415;BME280;2220;42.670;23.398;2023-01-25T22:33:41;94614.63;;;-0.07;100.00
4415;BME280;2220;42.670;23.398;2023-01-25T22:36:08;94601.25;;;-0.02;100.00
4415;BME280;2220;42.670;23.398;2023-01-25T22:38:34;94590.22;;;-0.03;100.00
4415;BME280;2220;42.670;23.398;2023-01-25T22:41:08;94573.47;;;-0.05;100.00
4415;BME280;2220;42.670;23.398;2023-01-25T22:43:35;94551.59;;;-0.01;100.00
4415;BME280;2220;42.670;23.398;2023-01-25T22:46:01;94563.84;;;0.04;100.00
4415;BME280;2220;42.670;23.398;2023-01-25T22:48:27;94563.25;;;0.02;100.00
4415;BME280;2220;42.670;23.398;2023-01-25T22:50:53;94550.66;;;0.00;100.00
4415;BME280;2220;42.670;23.398;2023-01-25T22:53:18;94549.00;;;-0.28;100.00
4415;BME280;2220;42.670;23.398;2023-01-25T22:55:44;94541.88;;;-0.39;100.00
4415;BME280;2220;42.670;23.398;2023-01-25T22:58:09;94554.22;;;-0.49;100.00
4415;BME280;2220;42.670;23.398;2023-01-25T23:00:36;94555.00;;;-0.62;100.00
4415;BME280;2220;42.670;23.398;2023-01-25T23:03:03;94547.78;;;-0.45;100.00
4415;BME280;2220;42.670;23.398;2023-01-25T23:05:28;94553.88;;;-0.46;100.00
4415;BME280;2220;42.670;23.398;2023-01-25T23:07:54;94543.53;;;-0.66;100.00
4415;BME280;2220;42.670;23.398;2023-01-25T23:10:20;94560.13;;;-0.55;100.00
4415;BME280;2220;42.670;23.398;2023-01-25T23:12:46;94552.78;;;-0.65;100.00
4415;BME280;2220;42.670;23.398;2023-01-25T23:15:11;94554.81;;;-0.53;100.00
4415;BME280;2220;42.670;23.398;2023-01-25T23:17:43;94553.06;;;-0.53;100.00
4415;BME280;2220;42.670;23.398;2023-01-25T23:20:28;94547.50;;;-0.57;100.00
4415;BME280;2220;42.670;23.398;2023-01-25T23:22:54;94545.94;;;-0.58;100.00
4415;BME280;2220;42.670;23.398;2023-01-25T23:25:20;94540.44;;;-0.61;100.00
4415;BME280;2220;42.670;23.398;2023-01-25T23:27:48;94554.22;;;-0.62;100.00
4415;BME280;2220;42.670;23.398;2023-01-25T23:30:14;94551.06;;;-0.64;100.00
4415;BME280;2220;42.670;23.398;2023-01-25T23:32:40;94558.53;;;-0.63;100.00
4415;BME280;2220;42.670;23.398;2023-01-25T23:35:14;94566.00;;;-0.61;100.00
4415;BME280;2220;42.670;23.398;2023-01-25T23:37:40;94561.50;;;-0.59;100.00
4415;BME280;2220;42.670;23.398;2023-01-25T23:40:05;94556.78;;;-0.55;100.00
4415;BME280;2220;42.670;23.398;2023-01-25T23:42:33;94546.94;;;-0.59;100.00
4415;BME280;2220;42.670;23.398;2023-01-25T23:44:59;94541.78;;;-0.65;100.00
4415;BME280;2220;42.670;23.398;2023-01-25T23:47:25;94537.91;;;-0.54;100.00
4415;BME280;2220;42.670;23.398;2023-01-25T23:49:50;94534.19;;;-0.45;100.00
4415;BME280;2220;42.670;23.398;2023-01-25T23:52:16;94518.03;;;-0.46;100.00
4415;BME280;2220;42.670;23.398;2023-01-25T23:54:41;94522.56;;;-0.54;100.00
4415;BME280;2220;42.670;23.398;2023-01-25T23:57:06;94519.84;;;-0.33;100.00
4415;BME280;2220;42.670;23.398;2023-01-25T23:59:32;94501.56;;;-0.30;100.00
